aviador You're here:

KCQX Decoded Metar

CHATHAM in MA, USA
Report Time2017-07-21 13:52:00
UTC Time2017-07-21 14:50:05
Flight Rules vfr VFR
WindVRB at 06 kt
Visibility9999 m
Phenomena:N/A
Clouds:N/A
Expected CloudBase > 3,600 ft AGL from Temp-Dew spread
CeilingNone
Temp27°C (ISA +12)
Dew Point18°C (58% RH)
Heat Index27.9°C
QNH1011 hPa
Density Alt1,801 ft
Elevation62 ft
Report Wrong Elevation
Raw Report
METAR KCQX 211352Z AUTO VRB06KT 10SM CLR 27/18 A2986 RMK AO2 SLP111
T02720178=

Extra information for KCQX:More info

Metar Taf Metar & Taf Last 4 Metars F.Rules Stats Wind Profile Meteogram Temp Stats Airport Information Weather charts Add Link Nearby VenuesMetar ALERT Operation Metar Decoded Social comments

AIRNAV info for KCQX